Cullar-Vega, Spain
Current Conditions -  °F | °C
As of 3:00 PM on Thursday 18 Dec 2014 (Local Time) from LEGR Reporting Station
Clear Clear  
Wind Chill: 17°   Ceiling: Unl
Heat Index: 17°   Visibility: 6mi
Dew Point:   Wind: 0mph
Humidity: 52%   Direction: NA
Pressure: 30.27"   Gusts: NA
Location:  37.15°N, 3.67°W
Report Text: LEGR 181400Z 00000KT CAVOK 17/07 Q1025
Loading
Personal Weather Stations






























Interactive Weather Map New forecast layout! Learn more

10-Day Weather Forecast

Advertisements
Track Severe Weather on mobile